»·PEaware :: N441PW KGTF-CYCZ

N441PW :: KGTF-CYCZ

FLIGHT INFORMATION

Flight Status: Arrived
Operator: Privately registered:
United States
More flights under this callsign
Pilot: Stacy K. (11621)
Aircraft: CESSNA 404 TITAN
(C404)
More flights by this aircraft type
Origin: KGTF Great Falls Intl
United States
Destination: CYCZ Fairmont Hot Springs
Canada
More flights between these airports :: More routes between these airports
Route: GTF V21 JEBOB SX
File this flight plan on PilotEdge
Remarks: RMK / SIMBRIEF
Altitude:
(Current/Filed)
8,500ft
Speed:
(Current/Filed)
232kts
Departed: 07-May-19 04:45 PM
Arrived: 07-May-19 06:12 PM
Distance/Time
Traveled:
246nm/1:26
Distance/Time
To Go:
Arrived

Flight Plot

Page will automatically refresh every two minutes.

Flight plan parsing failed; only flown route is shown


Map Options




Map Legend


Flown Route
Filed Route
Departure Airport
Arrival Airport
Navaid (VOR, NDB)
Fix

Horizontal Profiles

Position Reports

Time Latitude Longitude Heading Altitude Ground
Speed
07-May-19 16:20 47.479926 -111.364407 135 3681ft 0kts
07-May-19 16:20 47.479926 -111.364407 135 3681ft 0kts
07-May-19 16:22 47.479926 -111.364407 135 3681ft 0kts
07-May-19 16:23 47.479926 -111.364407 135 3681ft 0kts
07-May-19 16:23 47.479926 -111.364407 135 3681ft 0kts
07-May-19 16:25 47.479926 -111.364407 135 3681ft 0kts
07-May-19 16:25 47.479926 -111.364407 135 3681ft 0kts
07-May-19 16:26 47.479926 -111.364407 135 3681ft 0kts
07-May-19 16:28 47.479926 -111.364407 135 3681ft 0kts
07-May-19 16:28 47.479926 -111.364407 135 3681ft 0kts
07-May-19 16:29 47.479218 -111.365120 56 3681ft 14kts
07-May-19 16:30 47.484269 -111.359096 43 3681ft 19kts
07-May-19 16:31 47.485922 -111.355137 141 3681ft 6kts
07-May-19 16:32 47.485845 -111.354663 53 3681ft 0kts
07-May-19 16:33 47.485845 -111.354663 53 3681ft 0kts
07-May-19 16:34 47.485845 -111.354663 53 3681ft 0kts
07-May-19 16:35 47.485845 -111.354663 53 3681ft 0kts
07-May-19 16:36 47.485845 -111.354663 53 3681ft 0kts
07-May-19 16:37 47.485845 -111.354663 53 3681ft 0kts
07-May-19 16:38 47.486392 -111.355434 20 3681ft 11kts
07-May-19 16:39 47.483397 -111.360434 225 3681ft 25kts
07-May-19 16:40 47.479274 -111.366411 226 3681ft 15kts
07-May-19 16:41 47.475241 -111.372301 225 3681ft 25kts
07-May-19 16:42 47.471153 -111.378282 222 3681ft 19kts
07-May-19 16:43 47.468968 -111.383245 314 3681ft 0kts
07-May-19 16:44 47.475185 -111.375266 44 3707ft 96kts
07-May-19 16:45 47.494912 -111.366877 291 5162ft 106kts
07-May-19 16:46 47.470740 -111.393986 201 6498ft 132kts
07-May-19 16:47 47.471400 -111.429883 334 7687ft 114kts
07-May-19 16:48 47.500950 -111.453679 334 8517ft 142kts
07-May-19 16:49 47.542227 -111.487394 333 8489ft 187kts
07-May-19 16:50 47.588869 -111.525646 333 8479ft 194kts
07-May-19 16:51 47.634906 -111.563447 333 8499ft 186kts
07-May-19 16:52 47.680082 -111.600572 333 8501ft 185kts
07-May-19 16:53 47.725954 -111.638341 333 8490ft 189kts
07-May-19 16:54 47.772391 -111.676667 333 8489ft 192kts
07-May-19 16:55 47.813715 -111.723701 313 8507ft 189kts
07-May-19 16:56 47.847359 -111.783413 313 8509ft 188kts
07-May-19 16:57 47.881158 -111.843215 313 8512ft 188kts
07-May-19 16:58 47.914989 -111.903173 312 8514ft 189kts
07-May-19 16:59 47.948667 -111.962994 312 8520ft 188kts
07-May-19 17:00 47.982235 -112.022741 312 8529ft 188kts
07-May-19 17:01 48.016226 -112.083351 312 8525ft 192kts
07-May-19 17:02 48.050014 -112.143799 312 8538ft 188kts
07-May-19 17:03 48.083619 -112.204012 312 8546ft 188kts
07-May-19 17:04 48.117167 -112.264259 312 8548ft 188kts
07-May-19 17:05 48.150641 -112.324512 312 8550ft 188kts
07-May-19 17:06 48.184216 -112.385083 312 8554ft 189kts
07-May-19 17:07 48.217896 -112.445987 312 8557ft 189kts
07-May-19 17:08 48.251402 -112.506719 312 8560ft 189kts
07-May-19 17:09 48.285092 -112.568004 311 8577ft 191kts
07-May-19 17:10 48.317796 -112.627661 312 8973ft 176kts
07-May-19 17:11 48.348279 -112.683145 312 9593ft 168kts
07-May-19 17:12 48.377820 -112.737116 312 10218ft 165kts
07-May-19 17:13 48.406654 -112.789928 312 10842ft 162kts
07-May-19 17:14 48.435122 -112.842168 311 11469ft 159kts
07-May-19 17:15 48.463910 -112.895089 311 12106ft 166kts
07-May-19 17:16 48.493753 -112.950068 310 12500ft 177kts
07-May-19 17:17 48.525988 -113.009577 310 12495ft 186kts
07-May-19 17:18 48.558973 -113.070656 310 12491ft 188kts
07-May-19 17:19 48.592008 -113.131961 310 12490ft 188kts
07-May-19 17:20 48.625047 -113.193393 310 12495ft 188kts
07-May-19 17:21 48.658132 -113.254490 310 12494ft 188kts
07-May-19 17:22 48.690944 -113.316297 310 12492ft 188kts
07-May-19 17:23 48.723771 -113.377803 310 12491ft 188kts
07-May-19 17:24 48.756738 -113.439700 310 12496ft 188kts
07-May-19 17:25 48.789488 -113.501229 310 12499ft 188kts
07-May-19 17:26 48.822377 -113.563231 310 12500ft 188kts
07-May-19 17:27 48.855058 -113.625065 310 12501ft 188kts
07-May-19 17:28 48.887779 -113.687042 310 12503ft 188kts
07-May-19 17:29 48.920539 -113.749236 310 12509ft 188kts
07-May-19 17:30 48.953114 -113.811244 310 12512ft 188kts
07-May-19 17:31 48.985910 -113.873795 310 12516ft 188kts
07-May-19 17:32 49.018529 -113.936160 310 12520ft 188kts
07-May-19 17:33 49.051193 -113.998760 310 12524ft 188kts
07-May-19 17:34 49.083836 -114.061463 310 12516ft 190kts
07-May-19 17:35 49.116681 -114.124713 310 12504ft 190kts
07-May-19 17:36 49.149323 -114.187721 310 12508ft 189kts
07-May-19 17:37 49.182073 -114.251083 310 12512ft 190kts
07-May-19 17:38 49.214834 -114.314645 310 12510ft 190kts
07-May-19 17:39 49.247599 -114.378249 309 12510ft 190kts
07-May-19 17:40 49.280276 -114.441981 309 12516ft 191kts
07-May-19 17:41 49.313265 -114.506227 309 12520ft 191kts
07-May-19 17:42 49.343118 -114.573482 295 12528ft 192kts
07-May-19 17:43 49.362629 -114.650329 293 12529ft 193kts
07-May-19 17:44 49.381825 -114.727032 293 12536ft 193kts
07-May-19 17:45 49.400993 -114.803734 293 12542ft 192kts
07-May-19 17:46 49.417288 -114.885404 283 12050ft 209kts
07-May-19 17:47 49.428741 -114.974312 283 11353ft 214kts
07-May-19 17:48 49.425495 -115.065670 259 10654ft 217kts
07-May-19 17:49 49.413580 -115.156883 260 9953ft 217kts
07-May-19 17:50 49.405466 -115.248126 274 9255ft 216kts
07-May-19 17:51 49.417571 -115.337787 291 8558ft 213kts
07-May-19 17:52 49.446916 -115.416213 307 7860ft 211kts
07-May-19 17:53 49.483481 -115.486565 312 7199ft 208kts
07-May-19 17:54 49.523954 -115.545625 316 7108ft 195kts
07-May-19 17:55 49.557653 -115.610117 307 7100ft 193kts
07-May-19 17:56 49.591692 -115.673630 319 7093ft 192kts
07-May-19 17:57 49.638751 -115.703200 353 7177ft 186kts
07-May-19 17:58 49.679506 -115.712175 351 7201ft 189kts
07-May-19 17:59 49.731629 -115.726607 350 7205ft 190kts
07-May-19 18:00 49.783766 -115.741849 350 7213ft 190kts
07-May-19 18:01 49.835911 -115.757174 350 7223ft 190kts
07-May-19 18:02 49.887940 -115.772475 350 7206ft 191kts
07-May-19 18:03 49.941953 -115.778879 353 6790ft 204kts
07-May-19 18:04 49.999483 -115.792955 352 5830ft 211kts
07-May-19 18:05 50.056488 -115.806689 351 5180ft 203kts
07-May-19 18:06 50.111778 -115.820107 351 4682ft 203kts
07-May-19 18:07 50.167675 -115.833717 351 4049ft 201kts
07-May-19 18:08 50.221096 -115.846729 351 4002ft 188kts
07-May-19 18:09 50.270968 -115.859191 350 3905ft 159kts
07-May-19 18:10 50.279449 -115.861331 351 3864ft 140kts
07-May-19 18:11 50.329921 -115.873705 356 2665ft 14kts
07-May-19 18:12 50.326128 -115.872870 174 2665ft 15kts
07-May-19 18:13 50.322658 -115.871914 129 2665ft 9kts
07-May-19 18:14 50.321762 -115.870358 339 2665ft 0kts
07-May-19 18:15 50.321762 -115.870358 339 2665ft 0kts
07-May-19 18:16 50.321762 -115.870358 339 2665ft 0kts

Navigation Log

Ident Type
Flight plan parsing failed, navigation log unavailable